createdAt,value
2018-01-23T00:00:28.629Z,89.54
2018-01-23T00:01:10.350Z,89.5
2018-01-23T00:01:50.960Z,89.54
2018-01-23T00:02:31.540Z,89.12
2018-01-23T00:03:12.131Z,88.88
2018-01-23T00:03:52.748Z,88.98
2018-01-23T00:04:33.388Z,89.17
2018-01-23T00:05:15.485Z,89.07
2018-01-23T00:05:56.105Z,88.55
2018-01-23T00:06:36.644Z,88.36
2018-01-23T00:07:17.259Z,88.69
2018-01-23T00:07:57.862Z,88.93
2018-01-23T00:08:39.986Z,88.84
2018-01-23T00:09:20.541Z,89.03
2018-01-23T00:10:01.085Z,89.12
2018-01-23T00:10:41.643Z,88.55
2018-01-23T00:11:22.265Z,88.59
2018-01-23T00:12:02.824Z,88.45
2018-01-23T00:12:44.733Z,87.79
2018-01-23T00:13:25.304Z,87.98
2018-01-23T00:14:05.909Z,87.98
2018-01-23T00:14:46.550Z,88.36
2018-01-23T00:15:27.054Z,88.17
2018-01-23T00:16:07.604Z,88.45
2018-01-23T00:16:48.718Z,88.64
2018-01-23T00:17:29.779Z,88.93
2018-01-23T00:18:11.350Z,89.22
2018-01-23T00:18:51.979Z,88.36
2018-01-23T00:19:32.629Z,88.26
2018-01-23T00:20:13.189Z,88.84
2018-01-23T00:20:55.740Z,88.93
2018-01-23T00:21:36.373Z,88.93
2018-01-23T00:22:16.861Z,88.45
2018-01-23T00:22:57.479Z,88.36
2018-01-23T00:23:38.077Z,89.03
2018-01-23T00:24:19.265Z,89.12
2018-01-23T00:25:00.097Z,89.22
2018-01-23T00:25:40.729Z,89.69
2018-01-23T00:26:21.311Z,89.5
2018-01-23T00:27:01.900Z,89.6
2018-01-23T00:27:42.517Z,89.12
2018-01-23T00:28:23.096Z,88.74
2018-01-23T00:29:03.854Z,89.22
2018-01-23T00:29:45.368Z,88.93
2018-01-23T00:30:25.910Z,88.84
2018-01-23T00:31:06.404Z,88.93
2018-01-23T00:31:47.024Z,88.26
2018-01-23T00:32:27.569Z,88.74
2018-01-23T00:33:08.112Z,88.64
2018-01-23T00:33:49.394Z,88.69
2018-01-23T00:34:34.007Z,89.31
2018-01-23T00:35:14.543Z,88.36
2018-01-23T00:35:55.077Z,87.98
2018-01-23T00:36:35.677Z,88.07
2018-01-23T00:37:16.186Z,88.07
2018-01-23T00:37:56.778Z,87.98
2018-01-23T00:38:37.342Z,87.69
2018-01-23T00:39:17.897Z,88.17
2018-01-23T00:39:58.481Z,88.26
2018-01-23T00:40:39.934Z,87.98
2018-01-23T00:41:20.600Z,87.31
2018-01-23T00:42:01.241Z,88.07
2018-01-23T00:42:41.783Z,88.55
2018-01-23T00:43:22.385Z,88.36
2018-01-23T00:44:03.022Z,88.36
2018-01-23T00:44:45.150Z,88.36
2018-01-23T00:45:25.720Z,87.88
2018-01-23T00:46:06.295Z,87.31
2018-01-23T00:46:47.461Z,87.4
2018-01-23T00:47:28.215Z,87.4
2018-01-23T00:48:09.875Z,87.69
2018-01-23T00:48:51.228Z,87.31
2018-01-23T00:49:31.811Z,87.4
2018-01-23T00:50:12.358Z,87.31
2018-01-23T00:50:53.950Z,87.4
2018-01-23T00:51:35.081Z,87.12
2018-01-23T00:52:15.631Z,87.12
2018-01-23T00:52:56.330Z,87.4
2018-01-23T00:53:38.618Z,87.21
2018-01-23T00:54:19.535Z,87.31
2018-01-23T00:55:00.114Z,86.55
2018-01-23T00:55:40.768Z,86.93
2018-01-23T00:56:21.544Z,86.65
2018-01-23T00:57:02.446Z,86.07
2018-01-23T00:57:43.201Z,86.65
2018-01-23T00:58:25.961Z,86.93
2018-01-23T00:59:06.948Z,86.83
2018-01-23T00:59:47.485Z,86.55
2018-01-23T01:00:29.186Z,86.74
2018-01-23T01:01:09.994Z,86.83
2018-01-23T01:01:50.682Z,87.5
2018-01-23T01:02:31.348Z,87.6
2018-01-23T01:03:12.629Z,87.31
2018-01-23T01:03:53.229Z,87.4
2018-01-23T01:04:33.787Z,87.31
2018-01-23T01:05:14.746Z,86.83
2018-01-23T01:05:56.047Z,86.93
2018-01-23T01:06:37.114Z,87.12
2018-01-23T01:07:17.757Z,87.31
2018-01-23T01:07:58.370Z,87.6
2018-01-23T01:08:38.937Z,87.31
2018-01-23T01:09:19.571Z,86.74
2018-01-23T01:10:00.141Z,87.21
2018-01-23T01:10:42.393Z,87.21
2018-01-23T01:11:23.022Z,86.93
2018-01-23T01:12:03.551Z,86.98
2018-01-23T01:12:44.984Z,86.88
2018-01-23T01:13:26.831Z,86.74
2018-01-23T01:14:08.125Z,87.31
2018-01-23T01:14:49.391Z,87.5
2018-01-23T01:15:29.757Z,87.07
2018-01-23T01:16:11.279Z,87.07
2018-01-23T01:16:52.005Z,86.98
2018-01-23T01:17:32.905Z,87.31
2018-01-23T01:18:13.461Z,87.4
2018-01-23T01:18:54.328Z,87.02
2018-01-23T01:19:34.817Z,86.51
2018-01-23T01:20:16.125Z,86.36
2018-01-23T01:20:57.318Z,86.74
2018-01-23T01:21:37.939Z,86.88
2018-01-23T01:22:18.574Z,87.65
2018-01-23T01:22:59.112Z,87.07
2018-01-23T01:23:39.602Z,87.5
2018-01-23T01:24:20.283Z,87.5
2018-01-23T01:25:01.753Z,87.5
2018-01-23T01:25:42.858Z,87.4
2018-01-23T01:26:23.413Z,87.02
2018-01-23T01:27:04.036Z,87.5
2018-01-23T01:27:44.562Z,87.79
2018-01-23T01:28:25.122Z,86.93
2018-01-23T01:29:06.646Z,86.55
2018-01-23T01:29:48.409Z,86.45
2018-01-23T01:30:28.241Z,87.02
2018-01-23T01:31:08.854Z,86.83
2018-01-23T01:31:49.411Z,87.31
2018-01-23T01:32:30.008Z,87.5
2018-01-23T01:33:10.513Z,86.74
2018-01-23T01:33:51.115Z,86.65
2018-01-23T01:34:32.484Z,87.31
2018-01-23T01:35:14.607Z,87.6
2018-01-23T01:35:55.749Z,86.93
2018-01-23T01:36:38.997Z,86.93
2018-01-23T01:37:20.003Z,87.6
2018-01-23T01:38:00.802Z,87.12
2018-01-23T01:38:41.377Z,87.31
2018-01-23T01:39:23.618Z,87.21
2018-01-23T01:40:05.152Z,87.6
2018-01-23T01:40:46.466Z,87.31
2018-01-23T01:41:27.084Z,88.17
2018-01-23T01:42:07.648Z,87.21
2018-01-23T01:42:48.268Z,87.02
2018-01-23T01:43:29.100Z,87.4
2018-01-23T01:44:14.902Z,88.17
2018-01-23T01:44:55.458Z,88.17
2018-01-23T01:45:36.021Z,88.17
2018-01-23T01:46:16.807Z,88.17
2018-01-23T01:46:57.380Z,88.26
2018-01-23T01:47:38.783Z,88.36
2018-01-23T01:48:19.695Z,87.12
2018-01-23T01:49:00.272Z,87.79
2018-01-23T01:49:40.867Z,88.03
2018-01-23T01:50:21.509Z,87.46
2018-01-23T01:51:02.105Z,87.98
2018-01-23T01:51:44.009Z,88.17
2018-01-23T01:52:24.582Z,87.98
2018-01-23T01:53:05.145Z,87.36
2018-01-23T01:53:45.715Z,87.27
2018-01-23T01:54:26.286Z,88.03
2018-01-23T01:55:07.178Z,88.03
2018-01-23T01:55:47.917Z,88.12
2018-01-23T01:56:28.930Z,88.22
2018-01-23T01:57:09.529Z,88.64
2018-01-23T01:57:50.037Z,88.26
2018-01-23T01:58:30.633Z,88.07
2018-01-23T01:59:11.215Z,87.98
2018-01-23T01:59:51.757Z,88.07
2018-01-23T02:00:32.271Z,88.07
2018-01-23T02:01:13.092Z,88.07
2018-01-23T02:01:53.632Z,88.26
2018-01-23T02:02:34.222Z,88.12
2018-01-23T02:03:14.785Z,88.12
2018-01-23T02:03:55.307Z,88.12
2018-01-23T02:04:35.872Z,88.31
2018-01-23T02:05:16.428Z,89.26
2018-01-23T02:05:57.279Z,89.07
2018-01-23T02:06:38.551Z,88.7
2018-01-23T02:07:19.108Z,89.17
2018-01-23T02:07:59.693Z,89.07
2018-01-23T02:08:40.273Z,89.07
2018-01-23T02:09:20.832Z,89.07
2018-01-23T02:10:01.373Z,88.89
2018-01-23T02:10:41.907Z,88.98
2018-01-23T02:11:22.457Z,88.51
2018-01-23T02:12:03.013Z,87.93
2018-01-23T02:12:43.657Z,88.7
2018-01-23T02:13:24.333Z,88.79
2018-01-23T02:14:04.889Z,89.07
2018-01-23T02:14:46.128Z,88.89
2018-01-23T02:15:26.666Z,88.7
2018-01-23T02:16:07.258Z,89.17
2018-01-23T02:16:47.825Z,88.41
2018-01-23T02:17:28.339Z,88.51
2018-01-23T02:18:08.949Z,88.36
2018-01-23T02:18:49.551Z,88.55
2018-01-23T02:19:30.016Z,88.22
2018-01-23T02:20:10.579Z,88.36
2018-01-23T02:20:51.154Z,88.22
2018-01-23T02:21:31.756Z,88.79
2018-01-23T02:22:12.270Z,89.03
2018-01-23T02:22:52.887Z,89.03
2018-01-23T02:23:33.427Z,88.51
2018-01-23T02:24:13.963Z,89.07
2018-01-23T02:24:54.608Z,88.79
2018-01-23T02:25:35.233Z,88.98
2018-01-23T02:26:16.030Z,88.6
2018-01-23T02:26:56.621Z,88.22
2018-01-23T02:27:37.264Z,88.7
2018-01-23T02:28:17.890Z,88.74
2018-01-23T02:28:59.498Z,88.84
2018-01-23T02:29:40.046Z,89.07
2018-01-23T02:30:20.629Z,89.69
2018-01-23T02:31:01.150Z,88.93
2018-01-23T02:31:41.723Z,88.79
2018-01-23T02:32:22.290Z,88.22
2018-01-23T02:33:02.833Z,88.6
2018-01-23T02:33:43.370Z,88.31
2018-01-23T02:34:23.894Z,88.31
2018-01-23T02:35:04.408Z,88.89
2018-01-23T02:35:45.921Z,89.17
2018-01-23T02:36:26.519Z,89.26
2018-01-23T02:37:07.070Z,89.46
2018-01-23T02:37:47.656Z,89.65
2018-01-23T02:38:28.203Z,89.46
2018-01-23T02:39:08.801Z,89.46
2018-01-23T02:39:49.328Z,88.98
2018-01-23T02:40:29.878Z,89.65
2018-01-23T02:41:10.452Z,89.07
2018-01-23T02:41:51.012Z,88.7
2018-01-23T02:42:31.566Z,89.17
2018-01-23T02:43:12.110Z,89.46
2018-01-23T02:43:52.699Z,89.07
2018-01-23T02:44:33.268Z,89.55
2018-01-23T02:45:13.818Z,89.36
2018-01-23T02:45:54.360Z,89.26
2018-01-23T02:46:34.906Z,89.55
2018-01-23T02:47:15.453Z,89.07
2018-01-23T02:47:56.070Z,88.79
2018-01-23T02:48:36.632Z,88.98
2018-01-23T02:49:17.214Z,88.98
2018-01-23T02:49:57.746Z,88.79
2018-01-23T02:50:38.262Z,88.79
2018-01-23T02:51:18.853Z,89.07
2018-01-23T02:51:59.371Z,89.55
2018-01-23T02:52:39.936Z,89.55
2018-01-23T02:53:20.500Z,89.26
2018-01-23T02:54:01.011Z,89.46
2018-01-23T02:54:41.539Z,89.26
2018-01-23T02:55:22.131Z,89.36
2018-01-23T02:56:02.734Z,89.75
2018-01-23T02:56:43.249Z,89.84
2018-01-23T02:57:23.810Z,90.03
2018-01-23T02:58:04.287Z,90.6
2018-01-23T02:58:44.845Z,90.79
2018-01-23T02:59:25.427Z,90.5
2018-01-23T03:00:06.010Z,90.5
2018-01-23T03:00:46.601Z,90.79
2018-01-23T03:01:27.162Z,90.41
2018-01-23T03:02:07.707Z,90.5
2018-01-23T03:02:48.261Z,90.5
2018-01-23T03:03:28.865Z,90.5
2018-01-23T03:04:09.379Z,90.31
2018-01-23T03:04:49.935Z,90.5
2018-01-23T03:05:30.443Z,90.79
2018-01-23T03:06:10.981Z,89.94
2018-01-23T03:06:51.573Z,89.84
2018-01-23T03:07:32.161Z,89.84
2018-01-23T03:08:12.770Z,90.22
2018-01-23T03:08:53.370Z,89.75
2018-01-23T03:09:33.911Z,89.75
2018-01-23T03:10:14.465Z,89.46
2018-01-23T03:10:55.042Z,89.75
2018-01-23T03:11:35.570Z,89.75
2018-01-23T03:12:16.120Z,89.94
2018-01-23T03:12:56.671Z,90.03
2018-01-23T03:13:37.230Z,89.94
2018-01-23T03:14:17.745Z,89.65
2018-01-23T03:14:58.263Z,89.75
2018-01-23T03:15:38.825Z,90.22
2018-01-23T03:16:19.351Z,90.6
2018-01-23T03:16:59.937Z,89.65
2018-01-23T03:17:40.461Z,89.75
2018-01-23T03:18:21.061Z,90.03
2018-01-23T03:19:01.657Z,90.22
2018-01-23T03:19:42.277Z,89.75
2018-01-23T03:20:22.853Z,89.84
2018-01-23T03:21:03.520Z,89.55
2018-01-23T03:21:44.065Z,89.75
2018-01-23T03:22:24.619Z,89.55
2018-01-23T03:23:05.144Z,89.65
2018-01-23T03:23:45.716Z,89.75
2018-01-23T03:24:26.385Z,89.46
2018-01-23T03:25:06.907Z,89.55
2018-01-23T03:25:47.476Z,90.03
2018-01-23T03:26:27.975Z,90.12
2018-01-23T03:27:08.552Z,89.84
2018-01-23T03:27:49.332Z,89.75
2018-01-23T03:28:29.859Z,89.55
2018-01-23T03:29:10.448Z,90.03
2018-01-23T03:29:50.993Z,90.03
2018-01-23T03:30:31.628Z,90.6
2018-01-23T03:31:12.204Z,90.22
2018-01-23T03:31:52.700Z,90.6
2018-01-23T03:32:33.290Z,90.03
2018-01-23T03:33:13.779Z,89.84
2018-01-23T03:33:54.370Z,90.31
2018-01-23T03:34:35.328Z,90.03
2018-01-23T03:35:15.856Z,90.03
2018-01-23T03:35:56.520Z,89.36
2018-01-23T03:36:37.038Z,89.84
2018-01-23T03:37:17.625Z,89.55
2018-01-23T03:37:58.186Z,89.84
2018-01-23T03:38:38.884Z,89.46
2018-01-23T03:39:19.641Z,89.75
2018-01-23T03:40:00.230Z,89.17
2018-01-23T03:40:40.811Z,88.89
2018-01-23T03:41:21.479Z,88.98
2018-01-23T03:42:02.238Z,89.26
2018-01-23T03:42:42.771Z,89.17
2018-01-23T03:43:23.517Z,89.65
2018-01-23T03:44:04.155Z,89.07
2018-01-23T03:44:44.675Z,89.07
2018-01-23T03:45:25.217Z,89.17
2018-01-23T03:46:05.797Z,89.17
2018-01-23T03:46:47.229Z,89.84
2018-01-23T03:47:27.976Z,89.94
2018-01-23T03:48:08.569Z,90.22
2018-01-23T03:48:49.116Z,89.94
2018-01-23T03:49:29.714Z,89.65
2018-01-23T03:50:10.272Z,90.03
2018-01-23T03:50:50.828Z,89.65
2018-01-23T03:51:31.379Z,89.65
2018-01-23T03:52:11.950Z,89.36
2018-01-23T03:52:52.468Z,89.55
2018-01-23T03:53:33.063Z,88.79
2018-01-23T03:54:13.581Z,88.51
2018-01-23T03:54:54.198Z,88.51
2018-01-23T03:55:34.721Z,88.12
2018-01-23T03:56:15.266Z,88.03
2018-01-23T03:56:55.839Z,88.31
2018-01-23T03:57:36.349Z,88.22
2018-01-23T03:58:16.937Z,89.17
2018-01-23T03:58:57.475Z,89.65
2018-01-23T03:59:38.070Z,89.75
2018-01-23T04:00:18.618Z,89.07
2018-01-23T04:00:59.106Z,88.79
2018-01-23T04:01:39.710Z,88.7
2018-01-23T04:02:20.200Z,88.31
2018-01-23T04:03:00.753Z,88.51
2018-01-23T04:03:41.343Z,88.79
2018-01-23T04:04:21.907Z,88.79
2018-01-23T04:05:02.454Z,89.07
2018-01-23T04:05:43.051Z,88.98
2018-01-23T04:06:23.558Z,88.89
2018-01-23T04:07:04.157Z,88.89
2018-01-23T04:07:44.672Z,88.89
2018-01-23T04:08:25.242Z,88.79
2018-01-23T04:09:05.874Z,88.79
2018-01-23T04:09:46.371Z,88.51
2018-01-23T04:10:26.943Z,88.79
2018-01-23T04:11:07.499Z,88.6
2018-01-23T04:11:48.033Z,88.22
2018-01-23T04:12:28.562Z,88.03
2018-01-23T04:13:09.133Z,87.74
2018-01-23T04:13:49.705Z,88.31
2018-01-23T04:14:30.208Z,88.31
2018-01-23T04:15:10.745Z,88.12
2018-01-23T04:15:51.320Z,88.03
2018-01-23T04:16:31.893Z,87.84
2018-01-23T04:17:12.450Z,88.41
2018-01-23T04:17:53.007Z,87.93
2018-01-23T04:18:33.588Z,87.84
2018-01-23T04:19:14.162Z,88.6
2018-01-23T04:19:54.704Z,88.7
2018-01-23T04:20:35.251Z,88.51
2018-01-23T04:21:15.797Z,88.41
2018-01-23T04:21:56.331Z,87.93
2018-01-23T04:22:36.878Z,88.12
2018-01-23T04:23:17.473Z,88.22
2018-01-23T04:23:57.982Z,87.55
2018-01-23T04:24:38.512Z,87.46
2018-01-23T04:25:19.093Z,87.17
2018-01-23T04:25:59.655Z,87.17
2018-01-23T04:26:40.212Z,87.46
2018-01-23T04:27:20.758Z,87.36
2018-01-23T04:28:01.293Z,87.27
2018-01-23T04:28:41.863Z,87.07
2018-01-23T04:29:22.362Z,87.27
2018-01-23T04:30:02.916Z,87.84
2018-01-23T04:30:43.483Z,88.22
2018-01-23T04:31:24.081Z,87.27
2018-01-23T04:32:04.930Z,87.46
2018-01-23T04:32:45.495Z,87.46
2018-01-23T04:33:26.085Z,87.07
2018-01-23T04:34:06.719Z,87.27
2018-01-23T04:34:47.274Z,87.17
2018-01-23T04:35:27.847Z,87.07
2018-01-23T04:36:08.421Z,87.27
2018-01-23T04:36:48.988Z,86.84
2018-01-23T04:37:29.564Z,87.03
2018-01-23T04:38:10.099Z,87.32
2018-01-23T04:38:50.678Z,87.7
2018-01-23T04:39:31.209Z,88.37
2018-01-23T04:40:11.889Z,88.27
2018-01-23T04:40:54.103Z,88.37
2018-01-23T04:41:36.407Z,87.89
2018-01-23T04:42:16.978Z,88.27
2018-01-23T04:42:57.577Z,87.84
2018-01-23T04:43:38.122Z,88.03
2018-01-23T04:44:18.636Z,88.03
2018-01-23T04:44:59.253Z,87.93
2018-01-23T04:45:39.758Z,87.41
2018-01-23T04:46:20.416Z,87.17
2018-01-23T04:47:00.960Z,87.93
2018-01-23T04:47:41.511Z,87.23
2018-01-23T04:48:22.039Z,87.41
2018-01-23T04:49:02.612Z,87.46
2018-01-23T04:49:43.075Z,87.36
2018-01-23T04:50:23.690Z,87.27
2018-01-23T04:51:04.238Z,87.36
2018-01-23T04:51:44.762Z,86.98
2018-01-23T04:52:25.367Z,87.46
2018-01-23T04:53:05.940Z,87.36
2018-01-23T04:53:46.527Z,87.65
2018-01-23T04:54:27.103Z,86.88
2018-01-23T04:55:07.650Z,86.79
2018-01-23T04:55:49.482Z,87.17
2018-01-23T04:56:29.123Z,87.13
2018-01-23T04:57:09.695Z,87.23
2018-01-23T04:57:50.336Z,88.27
2018-01-23T04:58:30.974Z,88.31
2018-01-23T04:59:11.485Z,87.36
2018-01-23T04:59:52.052Z,87.41
2018-01-23T05:00:32.617Z,87.27
2018-01-23T05:01:13.184Z,87.36
2018-01-23T05:01:53.813Z,87.36
2018-01-23T05:02:34.389Z,87.46
2018-01-23T05:03:14.953Z,87.55
2018-01-23T05:03:55.581Z,87.17
2018-01-23T05:04:36.199Z,87.17
2018-01-23T05:05:16.728Z,87.27
2018-01-23T05:05:57.303Z,86.98
2018-01-23T05:06:37.863Z,86.98
2018-01-23T05:07:18.389Z,87.46
2018-01-23T05:07:58.988Z,86.98
2018-01-23T05:08:39.540Z,86.69
2018-01-23T05:09:20.085Z,87.07
2018-01-23T05:10:00.668Z,86.98
2018-01-23T05:10:41.242Z,86.98
2018-01-23T05:11:21.802Z,87.55
2018-01-23T05:12:02.350Z,86.98
2018-01-23T05:12:42.930Z,87.27
2018-01-23T05:13:23.494Z,86.79
2018-01-23T05:14:04.072Z,87.07
2018-01-23T05:14:44.607Z,86.98
2018-01-23T05:15:25.160Z,87.46
2018-01-23T05:16:05.745Z,87.27
2018-01-23T05:16:46.248Z,86.98
2018-01-23T05:17:26.821Z,86.98
2018-01-23T05:18:07.406Z,86.79
2018-01-23T05:18:47.952Z,86.51
2018-01-23T05:19:28.497Z,86.98
2018-01-23T05:20:09.824Z,87.27
2018-01-23T05:20:50.384Z,87.17
2018-01-23T05:21:30.872Z,87.27
2018-01-23T05:22:11.437Z,86.88
2018-01-23T05:22:51.968Z,87.27
2018-01-23T05:23:32.514Z,87.17
2018-01-23T05:24:13.069Z,87.46
2018-01-23T05:24:53.558Z,87.36
2018-01-23T05:25:34.169Z,88.03
2018-01-23T05:26:14.742Z,87.17
2018-01-23T05:26:55.372Z,86.88
2018-01-23T05:27:35.899Z,86.69
2018-01-23T05:28:16.469Z,87.27
2018-01-23T05:28:57.065Z,86.88
2018-01-23T05:29:37.569Z,87.27
2018-01-23T05:30:18.116Z,87.36
2018-01-23T05:30:58.719Z,87.27
2018-01-23T05:31:39.221Z,87.17
2018-01-23T05:32:19.746Z,87.07
2018-01-23T05:33:00.329Z,87.07
2018-01-23T05:33:40.903Z,87.27
2018-01-23T05:34:21.451Z,86.88
2018-01-23T05:35:02.018Z,87.36
2018-01-23T05:35:42.596Z,87.46
2018-01-23T05:36:23.147Z,87.36
2018-01-23T05:37:03.696Z,87.36
2018-01-23T05:37:44.267Z,87.27
2018-01-23T05:38:24.812Z,87.07
2018-01-23T05:39:05.379Z,87.46
2018-01-23T05:39:45.959Z,87.27
2018-01-23T05:40:26.503Z,86.88
2018-01-23T05:41:07.043Z,87.17
2018-01-23T05:41:47.679Z,86.98
2018-01-23T05:42:28.209Z,87.17
2018-01-23T05:43:08.759Z,87.36
2018-01-23T05:43:49.285Z,86.98
2018-01-23T05:44:29.854Z,87.36
2018-01-23T05:45:10.387Z,87.46
2018-01-23T05:45:51.007Z,87.27
2018-01-23T05:46:31.577Z,87.36
2018-01-23T05:47:12.093Z,87.27
2018-01-23T05:47:52.702Z,87.17
2018-01-23T05:48:33.349Z,87.17
2018-01-23T05:49:13.873Z,87.36
2018-01-23T05:49:54.498Z,87.65
2018-01-23T05:50:35.049Z,87.17
2018-01-23T05:51:15.589Z,88.31
2018-01-23T05:51:56.196Z,88.03
2018-01-23T05:52:36.775Z,88.51
2018-01-23T05:53:17.305Z,88.03
2018-01-23T05:53:57.857Z,88.41
2018-01-23T05:54:38.426Z,88.03
2018-01-23T05:55:18.999Z,88.31
2018-01-23T05:55:59.560Z,88.22
2018-01-23T05:56:40.093Z,87.93
2018-01-23T05:57:20.620Z,87.46
2018-01-23T05:58:01.189Z,87.27
2018-01-23T05:58:41.686Z,87.36
2018-01-23T05:59:22.213Z,88.03
2018-01-23T06:00:02.804Z,88.41
2018-01-23T06:00:43.309Z,88.03
2018-01-23T06:01:23.908Z,88.51
2018-01-23T06:02:04.423Z,88.22
2018-01-23T06:02:45.032Z,88.89
2018-01-23T06:03:25.598Z,88.31
2018-01-23T06:04:06.117Z,88.31
2018-01-23T06:04:46.707Z,88.12
2018-01-23T06:05:27.248Z,88.03
2018-01-23T06:06:07.765Z,88.31
2018-01-23T06:06:48.273Z,88.41
2018-01-23T06:07:28.830Z,88.51
2018-01-23T06:08:09.368Z,88.98
2018-01-23T06:08:49.889Z,89.07
2018-01-23T06:09:30.441Z,88.89
2018-01-23T06:10:11.020Z,88.03
2018-01-23T06:10:51.658Z,88.22
2018-01-23T06:11:34.086Z,88.22
2018-01-23T06:12:14.679Z,88.6
2018-01-23T06:12:55.205Z,88.7
2018-01-23T06:13:35.727Z,88.31
2018-01-23T06:14:16.275Z,88.51
2018-01-23T06:14:56.889Z,88.6
2018-01-23T06:15:37.500Z,88.98
2018-01-23T06:16:17.996Z,89.36
2018-01-23T06:16:58.604Z,89.84
2018-01-23T06:17:41.104Z,89.46
2018-01-23T06:18:21.614Z,89.46
2018-01-23T06:19:02.293Z,89.46
2018-01-23T06:19:42.874Z,89.84
2018-01-23T06:20:23.418Z,89.75
2018-01-23T06:21:04.014Z,89.94
2018-01-23T06:21:44.662Z,90.6
2018-01-23T06:22:25.236Z,90.98
2018-01-23T06:23:05.741Z,91.55
2018-01-23T06:23:46.295Z,91.36
2018-01-23T06:24:26.841Z,91.36
2018-01-23T06:25:07.378Z,91.74
2018-01-23T06:25:47.931Z,92.13
2018-01-23T06:26:28.522Z,91.65
2018-01-23T06:27:09.077Z,90.6
2018-01-23T06:27:49.620Z,91.08
2018-01-23T06:28:30.182Z,90.22
2018-01-23T06:29:10.786Z,91.55
2018-01-23T06:29:51.317Z,89.65
2018-01-23T06:30:31.906Z,89.55
2018-01-23T06:31:12.433Z,89.46
2018-01-23T06:31:53.159Z,90.22
2018-01-23T06:32:33.713Z,90.6
2018-01-23T06:33:14.279Z,92.13
2018-01-23T06:33:54.873Z,93.37
2018-01-23T06:34:35.469Z,93.46
2018-01-23T06:35:16.049Z,93.46
2018-01-23T06:35:56.604Z,90.98
2018-01-23T06:36:37.121Z,90.6
2018-01-23T06:37:17.668Z,92.03
2018-01-23T06:37:59.914Z,92.22
2018-01-23T06:38:40.472Z,91.65
2018-01-23T06:39:21.030Z,90.22
2018-01-23T06:40:01.584Z,89.65
2018-01-23T06:40:42.129Z,89.46
2018-01-23T06:41:22.678Z,89.46
2018-01-23T06:42:03.227Z,90.6
2018-01-23T06:42:43.828Z,91.36
2018-01-23T06:43:24.426Z,90.98
2018-01-23T06:44:04.893Z,91.36
2018-01-23T06:44:45.434Z,90.89
2018-01-23T06:45:25.973Z,89.46
2018-01-23T06:46:06.535Z,89.65
2018-01-23T06:46:47.110Z,91.27
2018-01-23T06:47:27.650Z,90.31
2018-01-23T06:48:08.151Z,89.84
2018-01-23T06:48:48.696Z,90.22
2018-01-23T06:49:29.328Z,91.55
2018-01-23T06:50:09.873Z,92.13
2018-01-23T06:50:50.467Z,92.5
2018-01-23T06:51:30.995Z,92.69
2018-01-23T06:52:11.596Z,92.79
2018-01-23T06:52:52.177Z,92.32
2018-01-23T06:53:32.785Z,92.22
2018-01-23T06:54:13.360Z,90.79
2018-01-23T06:54:53.947Z,91.08
2018-01-23T06:55:34.529Z,90.98
2018-01-23T06:56:15.101Z,91.08
2018-01-23T06:56:55.664Z,91.17
2018-01-23T06:57:36.402Z,90.6
2018-01-23T06:58:16.839Z,89.65
2018-01-23T06:58:57.452Z,90.41
2018-01-23T06:59:38.069Z,90.7
2018-01-23T07:00:18.636Z,90.98
2018-01-23T07:00:59.163Z,91.27
2018-01-23T07:01:39.717Z,90.5
2018-01-23T07:02:20.335Z,89.55
2018-01-23T07:03:00.881Z,90.41
2018-01-23T07:03:41.408Z,89.36
2018-01-23T07:04:21.953Z,90.5
2018-01-23T07:05:02.507Z,91.6
2018-01-23T07:05:43.015Z,90.55
2018-01-23T07:06:23.552Z,91.13
2018-01-23T07:07:04.103Z,91.6
2018-01-23T07:07:44.613Z,90.22
2018-01-23T07:08:25.177Z,89.75
2018-01-23T07:09:05.710Z,94.03
2018-01-23T07:09:46.237Z,99.99
2018-01-23T07:10:26.798Z,99.99
2018-01-23T07:11:07.412Z,99.99
2018-01-23T07:11:47.980Z,99.99
2018-01-23T07:12:28.512Z,99.99
2018-01-23T07:13:09.164Z,99.99
2018-01-23T07:13:49.735Z,99.99
2018-01-23T07:14:30.306Z,98.22
2018-01-23T07:15:10.871Z,95.75
2018-01-23T07:15:51.399Z,95.84
2018-01-23T07:16:31.957Z,99.99
2018-01-23T07:17:12.514Z,99.99
2018-01-23T07:17:53.046Z,99.99
2018-01-23T07:18:33.554Z,99.99
2018-01-23T07:19:14.148Z,99.99
2018-01-23T07:19:54.710Z,99.99
2018-01-23T07:20:35.264Z,99.99
2018-01-23T07:21:15.759Z,99.99
2018-01-23T07:21:56.296Z,98.18
2018-01-23T07:22:36.892Z,99.99
2018-01-23T07:23:17.417Z,99.99
2018-01-23T07:23:58.010Z,99.7
2018-01-23T07:24:38.584Z,98.65
2018-01-23T07:25:19.174Z,99.13
2018-01-23T07:25:59.711Z,99.99
2018-01-23T07:26:40.218Z,97.99
2018-01-23T07:27:20.867Z,99.99
2018-01-23T07:28:01.477Z,99.99
2018-01-23T07:28:42.032Z,99.99
2018-01-23T07:29:22.637Z,99.7
2018-01-23T07:30:03.205Z,97.22
2018-01-23T07:30:43.796Z,94.7
2018-01-23T07:31:24.402Z,93.27
2018-01-23T07:32:04.952Z,96.32
2018-01-23T07:32:45.561Z,98.7
2018-01-23T07:33:26.115Z,96.89
2018-01-23T07:34:06.700Z,95.89
2018-01-23T07:34:47.254Z,92.69
2018-01-23T07:35:27.761Z,91.84
2018-01-23T07:36:08.340Z,94.22
2018-01-23T07:36:48.920Z,94.79
2018-01-23T07:37:29.435Z,99.99
2018-01-23T07:38:09.995Z,99.99
2018-01-23T07:38:50.996Z,99.99
2018-01-23T07:39:31.556Z,99.99
2018-01-23T07:40:12.094Z,99.99
2018-01-23T07:40:52.651Z,99.99
2018-01-23T07:41:33.198Z,99.99
2018-01-23T07:42:13.732Z,99.99
2018-01-23T07:42:54.350Z,99.99
2018-01-23T07:43:34.920Z,99.99
2018-01-23T07:44:16.022Z,99.99
2018-01-23T07:44:56.613Z,99.8
2018-01-23T07:45:37.181Z,94.74
2018-01-23T07:46:17.776Z,94.65
2018-01-23T07:46:58.349Z,93.98
2018-01-23T07:47:38.856Z,95.22
2018-01-23T07:48:19.516Z,95.89
2018-01-23T07:49:03.474Z,94.27
2018-01-23T07:49:46.717Z,92.65
2018-01-23T07:50:27.482Z,90.26
2018-01-23T07:51:07.996Z,91.88
2018-01-23T07:51:48.586Z,90.5
2018-01-23T07:52:29.193Z,90.36
2018-01-23T07:53:09.775Z,91.88
2018-01-23T07:53:50.613Z,91.98
2018-01-23T07:54:31.207Z,91.88
2018-01-23T07:55:11.791Z,92.27
2018-01-23T07:55:52.298Z,93.7
2018-01-23T07:56:32.968Z,93.03
2018-01-23T07:57:13.528Z,92.36
2018-01-23T07:57:54.268Z,92.27
2018-01-23T07:58:34.842Z,99.32
2018-01-23T07:59:15.424Z,99.99
2018-01-23T07:59:56.011Z,95.03
2018-01-23T08:00:36.553Z,99.99
2018-01-23T08:01:17.084Z,99.99
2018-01-23T08:01:57.616Z,99.99
2018-01-23T08:02:38.143Z,99.99
2018-01-23T08:03:18.716Z,99.99
2018-01-23T08:03:59.320Z,99.99
2018-01-23T08:04:39.830Z,99.99
2018-01-23T08:05:20.368Z,99.99
2018-01-23T08:06:01.050Z,99.99
2018-01-23T08:06:41.584Z,99.99
2018-01-23T08:07:22.332Z,99.99
2018-01-23T08:08:03.004Z,99.51
2018-01-23T08:08:43.781Z,98.56
2018-01-23T08:09:25.353Z,96.27
2018-01-23T08:10:05.930Z,95.03
2018-01-23T08:10:46.553Z,94.93
2018-01-23T08:11:27.131Z,96.27
2018-01-23T08:12:07.694Z,99.99
2018-01-23T08:12:48.243Z,99.99
2018-01-23T08:13:28.782Z,99.99
2018-01-23T08:14:09.344Z,99.99
2018-01-23T08:14:49.895Z,99.99
2018-01-23T08:15:30.456Z,99.99
2018-01-23T08:16:11.015Z,99.99
2018-01-23T08:16:51.595Z,99.99
2018-01-23T08:17:32.095Z,99.99
2018-01-23T08:18:12.658Z,99.51
2018-01-23T08:18:53.177Z,97.61
2018-01-23T08:19:33.778Z,99.8
2018-01-23T08:20:14.675Z,99.99
2018-01-23T08:20:55.163Z,99.99
2018-01-23T08:21:35.722Z,94.65
2018-01-23T08:22:16.272Z,91.69
2018-01-23T08:22:56.812Z,90.26
2018-01-23T08:23:37.338Z,89.03
2018-01-23T08:24:17.893Z,90.45
2018-01-23T08:24:58.382Z,91.6
2018-01-23T08:25:38.981Z,89.84
2018-01-23T08:26:19.622Z,91.74
2018-01-23T08:27:00.252Z,96.17
2018-01-23T08:27:40.734Z,99.13
2018-01-23T08:28:21.304Z,99.99
2018-01-23T08:29:01.867Z,99.99
2018-01-23T08:29:42.370Z,99.99
2018-01-23T08:30:22.911Z,99.99
2018-01-23T08:31:03.556Z,99.99
2018-01-23T08:31:44.086Z,99.99
2018-01-23T08:32:24.715Z,99.99
2018-01-23T08:33:05.222Z,98.56
2018-01-23T08:33:45.756Z,94.65
2018-01-23T08:34:26.296Z,91.98
2018-01-23T08:35:06.959Z,92.08
2018-01-23T08:35:47.519Z,91.22
2018-01-23T08:36:28.075Z,89.69
2018-01-23T08:37:08.633Z,88.36
2018-01-23T08:37:49.189Z,89.4
2018-01-23T08:38:29.763Z,89.79
2018-01-23T08:39:10.290Z,89.31
2018-01-23T08:39:50.877Z,88.55
2018-01-23T08:40:31.388Z,90.45
2018-01-23T08:41:11.959Z,89.89
2018-01-23T08:41:52.520Z,89.4
2018-01-23T08:42:33.048Z,90.26
2018-01-23T08:43:13.616Z,90.26
2018-01-23T08:43:54.147Z,98.56
2018-01-23T08:44:34.721Z,99.99
2018-01-23T08:45:15.286Z,99.99
2018-01-23T08:45:55.851Z,99.99